sensor_id;sensor_type;location;lat;lon;timestamp;P1;durP1;ratioP1;P2;durP2;ratioP2
22687;SDS011;11511;51.514;7.080;2023-08-24T01:08:12;10.48;;;9.32;;
22687;SDS011;11511;51.514;7.080;2023-08-24T01:10:45;9.40;;;8.20;;
22687;SDS011;11511;51.514;7.080;2023-08-24T01:13:20;12.77;;;9.00;;
22687;SDS011;11511;51.514;7.080;2023-08-24T01:16:00;10.15;;;9.15;;
22687;SDS011;11511;51.514;7.080;2023-08-24T01:18:33;14.05;;;11.35;;
22687;SDS011;11511;51.514;7.080;2023-08-24T01:21:01;19.65;;;12.68;;
22687;SDS011;11511;51.514;7.080;2023-08-24T01:23:36;18.38;;;12.57;;
22687;SDS011;11511;51.514;7.080;2023-08-24T01:26:19;15.70;;;12.38;;
22687;SDS011;11511;51.514;7.080;2023-08-24T01:28:46;17.52;;;12.48;;
22687;SDS011;11511;51.514;7.080;2023-08-24T01:31:15;16.60;;;11.93;;
22687;SDS011;11511;51.514;7.080;2023-08-24T01:33:42;14.02;;;10.70;;
22687;SDS011;11511;51.514;7.080;2023-08-24T01:36:12;16.10;;;12.07;;
22687;SDS011;11511;51.514;7.080;2023-08-24T01:38:40;22.13;;;11.95;;
22687;SDS011;11511;51.514;7.080;2023-08-24T01:41:13;17.80;;;12.15;;
22687;SDS011;11511;51.514;7.080;2023-08-24T01:43:45;13.93;;;10.88;;
22687;SDS011;11511;51.514;7.080;2023-08-24T01:46:14;13.93;;;11.82;;
22687;SDS011;11511;51.514;7.080;2023-08-24T01:48:42;13.93;;;10.15;;
22687;SDS011;11511;51.514;7.080;2023-08-24T01:51:09;11.43;;;9.95;;
22687;SDS011;11511;51.514;7.080;2023-08-24T01:53:35;12.40;;;9.88;;
22687;SDS011;11511;51.514;7.080;2023-08-24T01:56:07;11.43;;;9.60;;
22687;SDS011;11511;51.514;7.080;2023-08-24T01:58:33;13.02;;;9.77;;
22687;SDS011;11511;51.514;7.080;2023-08-24T02:00:58;12.43;;;9.52;;
22687;SDS011;11511;51.514;7.080;2023-08-24T02:03:24;13.35;;;10.00;;
22687;SDS011;11511;51.514;7.080;2023-08-24T02:05:49;12.35;;;10.07;;
22687;SDS011;11511;51.514;7.080;2023-08-24T02:11:17;13.95;;;10.57;;
22687;SDS011;11511;51.514;7.080;2023-08-24T02:13:42;12.18;;;10.82;;
22687;SDS011;11511;51.514;7.080;2023-08-24T02:16:08;14.63;;;11.02;;
22687;SDS011;11511;51.514;7.080;2023-08-24T02:18:34;13.45;;;10.63;;
22687;SDS011;11511;51.514;7.080;2023-08-24T02:20:59;15.65;;;10.93;;
22687;SDS011;11511;51.514;7.080;2023-08-24T02:23:24;13.60;;;11.00;;
22687;SDS011;11511;51.514;7.080;2023-08-24T02:25:50;14.68;;;10.77;;
22687;SDS011;11511;51.514;7.080;2023-08-24T02:28:15;14.52;;;11.50;;
22687;SDS011;11511;51.514;7.080;2023-08-24T02:30:40;13.77;;;11.80;;
22687;SDS011;11511;51.514;7.080;2023-08-24T02:33:06;15.93;;;11.43;;
22687;SDS011;11511;51.514;7.080;2023-08-24T02:35:32;13.15;;;11.85;;
22687;SDS011;11511;51.514;7.080;2023-08-24T02:37:57;12.45;;;10.85;;
22687;SDS011;11511;51.514;7.080;2023-08-24T02:40:22;13.90;;;10.90;;
22687;SDS011;11511;51.514;7.080;2023-08-24T02:42:48;13.73;;;11.38;;
22687;SDS011;11511;51.514;7.080;2023-08-24T02:45:14;13.15;;;10.95;;
22687;SDS011;11511;51.514;7.080;2023-08-24T02:47:39;14.25;;;10.98;;
22687;SDS011;11511;51.514;7.080;2023-08-24T02:50:05;16.38;;;11.13;;
22687;SDS011;11511;51.514;7.080;2023-08-24T02:52:31;12.73;;;11.07;;
22687;SDS011;11511;51.514;7.080;2023-08-24T02:54:57;12.50;;;11.23;;
22687;SDS011;11511;51.514;7.080;2023-08-24T02:57:23;14.88;;;11.98;;
22687;SDS011;11511;51.514;7.080;2023-08-24T02:59:48;13.95;;;12.40;;
22687;SDS011;11511;51.514;7.080;2023-08-24T03:02:13;15.95;;;12.93;;
22687;SDS011;11511;51.514;7.080;2023-08-24T03:04:39;15.93;;;13.18;;
22687;SDS011;11511;51.514;7.080;2023-08-24T03:07:04;17.20;;;14.10;;
22687;SDS011;11511;51.514;7.080;2023-08-24T03:09:32;17.27;;;13.43;;
22687;SDS011;11511;51.514;7.080;2023-08-24T03:11:59;20.33;;;13.98;;
22687;SDS011;11511;51.514;7.080;2023-08-24T03:14:24;15.70;;;14.10;;
22687;SDS011;11511;51.514;7.080;2023-08-24T03:16:49;15.80;;;13.90;;
22687;SDS011;11511;51.514;7.080;2023-08-24T03:19:15;17.15;;;14.30;;
22687;SDS011;11511;51.514;7.080;2023-08-24T03:21:42;16.67;;;14.15;;
22687;SDS011;11511;51.514;7.080;2023-08-24T03:24:09;17.52;;;14.43;;
22687;SDS011;11511;51.514;7.080;2023-08-24T03:26:34;16.58;;;14.80;;
22687;SDS011;11511;51.514;7.080;2023-08-24T03:28:59;18.10;;;15.32;;
22687;SDS011;11511;51.514;7.080;2023-08-24T03:31:25;18.15;;;15.00;;
22687;SDS011;11511;51.514;7.080;2023-08-24T03:33:51;19.70;;;16.08;;
22687;SDS011;11511;51.514;7.080;2023-08-24T03:36:16;17.17;;;15.20;;
22687;SDS011;11511;51.514;7.080;2023-08-24T03:38:42;18.40;;;14.90;;
22687;SDS011;11511;51.514;7.080;2023-08-24T03:41:07;17.20;;;15.13;;
22687;SDS011;11511;51.514;7.080;2023-08-24T03:43:33;17.75;;;15.65;;
22687;SDS011;11511;51.514;7.080;2023-08-24T03:45:59;16.80;;;14.50;;
22687;SDS011;11511;51.514;7.080;2023-08-24T03:48:26;16.77;;;14.15;;
22687;SDS011;11511;51.514;7.080;2023-08-24T03:50:55;16.05;;;14.38;;
22687;SDS011;11511;51.514;7.080;2023-08-24T03:53:21;14.88;;;12.88;;
22687;SDS011;11511;51.514;7.080;2023-08-24T03:55:47;13.48;;;11.90;;
22687;SDS011;11511;51.514;7.080;2023-08-24T03:58:14;13.75;;;11.18;;
22687;SDS011;11511;51.514;7.080;2023-08-24T04:00:39;15.63;;;11.70;;
22687;SDS011;11511;51.514;7.080;2023-08-24T04:03:05;13.98;;;10.93;;
22687;SDS011;11511;51.514;7.080;2023-08-24T04:05:31;12.63;;;10.60;;
22687;SDS011;11511;51.514;7.080;2023-08-24T04:07:56;12.15;;;10.88;;
22687;SDS011;11511;51.514;7.080;2023-08-24T04:10:21;13.45;;;10.40;;
22687;SDS011;11511;51.514;7.080;2023-08-24T04:12:47;12.98;;;9.80;;
22687;SDS011;11511;51.514;7.080;2023-08-24T04:15:12;13.35;;;9.80;;
22687;SDS011;11511;51.514;7.080;2023-08-24T04:17:37;10.77;;;8.95;;
22687;SDS011;11511;51.514;7.080;2023-08-24T04:20:03;13.95;;;8.80;;
22687;SDS011;11511;51.514;7.080;2023-08-24T04:22:31;11.70;;;8.90;;
22687;SDS011;11511;51.514;7.080;2023-08-24T04:24:57;12.05;;;8.60;;
22687;SDS011;11511;51.514;7.080;2023-08-24T04:27:22;14.00;;;9.05;;
22687;SDS011;11511;51.514;7.080;2023-08-24T04:29:47;11.85;;;9.43;;
22687;SDS011;11511;51.514;7.080;2023-08-24T04:32:14;12.00;;;9.77;;
22687;SDS011;11511;51.514;7.080;2023-08-24T04:34:39;12.18;;;9.88;;
22687;SDS011;11511;51.514;7.080;2023-08-24T04:37:05;15.57;;;11.00;;
22687;SDS011;11511;51.514;7.080;2023-08-24T04:39:31;14.07;;;12.18;;
22687;SDS011;11511;51.514;7.080;2023-08-24T04:41:57;16.85;;;13.82;;
22687;SDS011;11511;51.514;7.080;2023-08-24T04:44:22;18.38;;;12.48;;
22687;SDS011;11511;51.514;7.080;2023-08-24T04:46:49;19.42;;;14.30;;
22687;SDS011;11511;51.514;7.080;2023-08-24T04:49:14;19.38;;;16.88;;
22687;SDS011;11511;51.514;7.080;2023-08-24T04:51:40;21.75;;;18.95;;
22687;SDS011;11511;51.514;7.080;2023-08-24T04:54:05;25.15;;;18.75;;
22687;SDS011;11511;51.514;7.080;2023-08-24T04:56:31;25.80;;;17.52;;
22687;SDS011;11511;51.514;7.080;2023-08-24T04:58:56;22.40;;;15.77;;
22687;SDS011;11511;51.514;7.080;2023-08-24T05:01:23;18.67;;;14.48;;
22687;SDS011;11511;51.514;7.080;2023-08-24T05:03:52;18.42;;;14.70;;
22687;SDS011;11511;51.514;7.080;2023-08-24T05:06:18;20.55;;;14.27;;
22687;SDS011;11511;51.514;7.080;2023-08-24T05:08:44;16.77;;;12.82;;
22687;SDS011;11511;51.514;7.080;2023-08-24T05:11:10;18.60;;;11.65;;
22687;SDS011;11511;51.514;7.080;2023-08-24T05:13:42;16.15;;;10.60;;
22687;SDS011;11511;51.514;7.080;2023-08-24T05:16:08;21.30;;;10.88;;
22687;SDS011;11511;51.514;7.080;2023-08-24T05:18:34;17.77;;;9.88;;
22687;SDS011;11511;51.514;7.080;2023-08-24T05:21:03;14.80;;;9.65;;
22687;SDS011;11511;51.514;7.080;2023-08-24T05:23:31;14.45;;;9.30;;
22687;SDS011;11511;51.514;7.080;2023-08-24T05:25:58;15.27;;;9.63;;
22687;SDS011;11511;51.514;7.080;2023-08-24T05:28:25;13.35;;;8.88;;
22687;SDS011;11511;51.514;7.080;2023-08-24T05:30:51;13.95;;;8.90;;
22687;SDS011;11511;51.514;7.080;2023-08-24T05:33:17;16.38;;;9.48;;
22687;SDS011;11511;51.514;7.080;2023-08-24T05:35:43;13.23;;;8.48;;
22687;SDS011;11511;51.514;7.080;2023-08-24T05:38:08;13.65;;;8.30;;
22687;SDS011;11511;51.514;7.080;2023-08-24T05:40:34;12.15;;;8.23;;
22687;SDS011;11511;51.514;7.080;2023-08-24T05:43:00;12.82;;;8.20;;
22687;SDS011;11511;51.514;7.080;2023-08-24T05:45:25;10.60;;;7.72;;
22687;SDS011;11511;51.514;7.080;2023-08-24T05:47:50;11.90;;;8.07;;
22687;SDS011;11511;51.514;7.080;2023-08-24T05:50:16;8.88;;;7.72;;
22687;SDS011;11511;51.514;7.080;2023-08-24T05:52:41;11.48;;;7.72;;
22687;SDS011;11511;51.514;7.080;2023-08-24T05:55:07;9.63;;;7.55;;
22687;SDS011;11511;51.514;7.080;2023-08-24T05:57:32;11.02;;;7.57;;
22687;SDS011;11511;51.514;7.080;2023-08-24T05:59:58;9.80;;;6.88;;
22687;SDS011;11511;51.514;7.080;2023-08-24T06:02:23;11.40;;;7.47;;
22687;SDS011;11511;51.514;7.080;2023-08-24T06:04:48;12.25;;;7.85;;
22687;SDS011;11511;51.514;7.080;2023-08-24T06:07:16;16.00;;;8.85;;
22687;SDS011;11511;51.514;7.080;2023-08-24T06:09:42;16.70;;;9.35;;
22687;SDS011;11511;51.514;7.080;2023-08-24T06:12:09;13.70;;;8.40;;
22687;SDS011;11511;51.514;7.080;2023-08-24T06:14:34;19.00;;;8.23;;
22687;SDS011;11511;51.514;7.080;2023-08-24T06:16:59;12.07;;;8.27;;
22687;SDS011;11511;51.514;7.080;2023-08-24T06:19:25;15.27;;;8.18;;
22687;SDS011;11511;51.514;7.080;2023-08-24T06:21:50;11.88;;;7.85;;
22687;SDS011;11511;51.514;7.080;2023-08-24T06:24:15;14.65;;;8.88;;
22687;SDS011;11511;51.514;7.080;2023-08-24T06:26:41;14.52;;;8.48;;
22687;SDS011;11511;51.514;7.080;2023-08-24T06:29:06;13.35;;;8.70;;
22687;SDS011;11511;51.514;7.080;2023-08-24T06:31:32;12.10;;;7.72;;
22687;SDS011;11511;51.514;7.080;2023-08-24T06:33:58;12.63;;;8.57;;
22687;SDS011;11511;51.514;7.080;2023-08-24T06:36:23;16.73;;;8.88;;
22687;SDS011;11511;51.514;7.080;2023-08-24T06:38:49;14.63;;;8.95;;
22687;SDS011;11511;51.514;7.080;2023-08-24T06:41:14;19.52;;;9.77;;
22687;SDS011;11511;51.514;7.080;2023-08-24T06:43:40;15.98;;;8.18;;
22687;SDS011;11511;51.514;7.080;2023-08-24T06:46:05;12.07;;;8.18;;
22687;SDS011;11511;51.514;7.080;2023-08-24T06:48:34;16.20;;;8.85;;
22687;SDS011;11511;51.514;7.080;2023-08-24T06:51:02;11.93;;;8.52;;
22687;SDS011;11511;51.514;7.080;2023-08-24T06:53:28;13.93;;;7.88;;
22687;SDS011;11511;51.514;7.080;2023-08-24T06:55:53;12.90;;;8.93;;
22687;SDS011;11511;51.514;7.080;2023-08-24T06:58:20;15.63;;;8.02;;
22687;SDS011;11511;51.514;7.080;2023-08-24T07:00:45;20.25;;;9.77;;
22687;SDS011;11511;51.514;7.080;2023-08-24T07:03:11;16.42;;;9.13;;
22687;SDS011;11511;51.514;7.080;2023-08-24T07:05:36;14.88;;;8.57;;
22687;SDS011;11511;51.514;7.080;2023-08-24T07:08:02;14.48;;;8.63;;
22687;SDS011;11511;51.514;7.080;2023-08-24T07:10:28;14.38;;;8.38;;
22687;SDS011;11511;51.514;7.080;2023-08-24T07:12:54;13.55;;;9.32;;
22687;SDS011;11511;51.514;7.080;2023-08-24T07:15:20;12.82;;;8.10;;
22687;SDS011;11511;51.514;7.080;2023-08-24T07:17:45;17.08;;;8.18;;
22687;SDS011;11511;51.514;7.080;2023-08-24T07:20:11;12.82;;;7.80;;
22687;SDS011;11511;51.514;7.080;2023-08-24T07:22:39;11.30;;;7.82;;
22687;SDS011;11511;51.514;7.080;2023-08-24T07:25:05;10.48;;;7.28;;
22687;SDS011;11511;51.514;7.080;2023-08-24T07:27:34;10.45;;;7.95;;
22687;SDS011;11511;51.514;7.080;2023-08-24T07:30:00;17.92;;;7.55;;
22687;SDS011;11511;51.514;7.080;2023-08-24T07:32:30;14.93;;;7.85;;
22687;SDS011;11511;51.514;7.080;2023-08-24T07:34:56;12.10;;;7.15;;
22687;SDS011;11511;51.514;7.080;2023-08-24T07:37:22;11.57;;;6.53;;
22687;SDS011;11511;51.514;7.080;2023-08-24T07:39:47;12.90;;;6.95;;
22687;SDS011;11511;51.514;7.080;2023-08-24T07:42:12;12.57;;;6.95;;
22687;SDS011;11511;51.514;7.080;2023-08-24T07:44:38;9.85;;;6.57;;
22687;SDS011;11511;51.514;7.080;2023-08-24T07:47:03;12.02;;;6.72;;
22687;SDS011;11511;51.514;7.080;2023-08-24T07:49:29;10.70;;;6.78;;
22687;SDS011;11511;51.514;7.080;2023-08-24T07:51:54;10.10;;;6.50;;
22687;SDS011;11511;51.514;7.080;2023-08-24T07:54:20;8.30;;;6.00;;
22687;SDS011;11511;51.514;7.080;2023-08-24T07:56:46;11.48;;;6.45;;
22687;SDS011;11511;51.514;7.080;2023-08-24T07:59:11;18.27;;;6.80;;
22687;SDS011;11511;51.514;7.080;2023-08-24T08:01:36;14.50;;;5.50;;
22687;SDS011;11511;51.514;7.080;2023-08-24T08:04:02;11.02;;;5.25;;
22687;SDS011;11511;51.514;7.080;2023-08-24T08:06:27;7.95;;;5.05;;
22687;SDS011;11511;51.514;7.080;2023-08-24T08:08:53;9.18;;;5.00;;
22687;SDS011;11511;51.514;7.080;2023-08-24T08:11:18;8.95;;;4.70;;
22687;SDS011;11511;51.514;7.080;2023-08-24T08:13:44;7.47;;;4.28;;
22687;SDS011;11511;51.514;7.080;2023-08-24T08:16:09;8.80;;;3.92;;
22687;SDS011;11511;51.514;7.080;2023-08-24T08:18:35;7.07;;;3.88;;
22687;SDS011;11511;51.514;7.080;2023-08-24T08:21:08;7.38;;;4.30;;
22687;SDS011;11511;51.514;7.080;2023-08-24T08:23:34;8.45;;;3.95;;
22687;SDS011;11511;51.514;7.080;2023-08-24T08:26:12;7.43;;;3.95;;
22687;SDS011;11511;51.514;7.080;2023-08-24T08:28:38;7.47;;;3.80;;
22687;SDS011;11511;51.514;7.080;2023-08-24T08:31:04;7.15;;;3.55;;
22687;SDS011;11511;51.514;7.080;2023-08-24T08:33:31;5.55;;;3.10;;
22687;SDS011;11511;51.514;7.080;2023-08-24T08:35:57;7.28;;;3.40;;
22687;SDS011;11511;51.514;7.080;2023-08-24T08:38:22;5.70;;;3.13;;
22687;SDS011;11511;51.514;7.080;2023-08-24T08:40:51;8.55;;;3.00;;
22687;SDS011;11511;51.514;7.080;2023-08-24T08:43:18;6.82;;;2.85;;
22687;SDS011;11511;51.514;7.080;2023-08-24T08:45:46;5.50;;;2.60;;
22687;SDS011;11511;51.514;7.080;2023-08-24T08:48:12;6.25;;;2.78;;
22687;SDS011;11511;51.514;7.080;2023-08-24T08:50:38;9.10;;;2.78;;
22687;SDS011;11511;51.514;7.080;2023-08-24T08:53:03;12.07;;;2.92;;
22687;SDS011;11511;51.514;7.080;2023-08-24T08:55:29;4.53;;;2.60;;
22687;SDS011;11511;51.514;7.080;2023-08-24T08:57:56;6.03;;;2.72;;
22687;SDS011;11511;51.514;7.080;2023-08-24T09:00:26;4.88;;;2.20;;
22687;SDS011;11511;51.514;7.080;2023-08-24T09:02:53;2.90;;;2.28;;
22687;SDS011;11511;51.514;7.080;2023-08-24T09:05:19;6.72;;;2.35;;
22687;SDS011;11511;51.514;7.080;2023-08-24T09:07:48;6.90;;;2.67;;
22687;SDS011;11511;51.514;7.080;2023-08-24T09:10:14;5.68;;;2.40;;
22687;SDS011;11511;51.514;7.080;2023-08-24T09:12:39;6.57;;;2.70;;
22687;SDS011;11511;51.514;7.080;2023-08-24T09:15:07;8.65;;;2.72;;
22687;SDS011;11511;51.514;7.080;2023-08-24T09:17:33;5.97;;;2.85;;
22687;SDS011;11511;51.514;7.080;2023-08-24T09:19:59;8.57;;;3.00;;
22687;SDS011;11511;51.514;7.080;2023-08-24T09:22:35;8.80;;;2.70;;
22687;SDS011;11511;51.514;7.080;2023-08-24T09:25:02;4.47;;;2.30;;
22687;SDS011;11511;51.514;7.080;2023-08-24T09:27:29;4.53;;;2.42;;
22687;SDS011;11511;51.514;7.080;2023-08-24T09:29:56;10.35;;;2.60;;
22687;SDS011;11511;51.514;7.080;2023-08-24T09:32:27;5.25;;;2.20;;
22687;SDS011;11511;51.514;7.080;2023-08-24T09:34:54;7.10;;;2.05;;
22687;SDS011;11511;51.514;7.080;2023-08-24T09:37:19;3.67;;;2.00;;
22687;SDS011;11511;51.514;7.080;2023-08-24T09:39:45;3.95;;;2.20;;
22687;SDS011;11511;51.514;7.080;2023-08-24T09:42:20;7.32;;;2.70;;
22687;SDS011;11511;51.514;7.080;2023-08-24T09:45:02;9.15;;;2.67;;
22687;SDS011;11511;51.514;7.080;2023-08-24T09:47:36;8.90;;;2.88;;
22687;SDS011;11511;51.514;7.080;2023-08-24T09:50:08;6.75;;;2.55;;
22687;SDS011;11511;51.514;7.080;2023-08-24T09:52:40;7.93;;;2.80;;
22687;SDS011;11511;51.514;7.080;2023-08-24T09:55:13;17.42;;;3.60;;
22687;SDS011;11511;51.514;7.080;2023-08-24T09:57:53;11.00;;;3.45;;
22687;SDS011;11511;51.514;7.080;2023-08-24T10:00:26;10.02;;;2.72;;
22687;SDS011;11511;51.514;7.080;2023-08-24T10:02:58;10.05;;;3.00;;
22687;SDS011;11511;51.514;7.080;2023-08-24T10:05:32;8.93;;;2.60;;
22687;SDS011;11511;51.514;7.080;2023-08-24T10:08:04;5.32;;;2.13;;
22687;SDS011;11511;51.514;7.080;2023-08-24T10:10:39;6.05;;;2.35;;
22687;SDS011;11511;51.514;7.080;2023-08-24T10:13:35;4.65;;;2.05;;
22687;SDS011;11511;51.514;7.080;2023-08-24T10:16:10;6.22;;;2.08;;
22687;SDS011;11511;51.514;7.080;2023-08-24T10:18:44;5.95;;;2.05;;
22687;SDS011;11511;51.514;7.080;2023-08-24T10:21:17;6.63;;;2.25;;
22687;SDS011;11511;51.514;7.080;2023-08-24T10:23:49;4.80;;;2.30;;
22687;SDS011;11511;51.514;7.080;2023-08-24T10:26:21;7.18;;;1.95;;
22687;SDS011;11511;51.514;7.080;2023-08-24T10:28:54;4.25;;;2.10;;
22687;SDS011;11511;51.514;7.080;2023-08-24T10:31:27;7.07;;;2.10;;
22687;SDS011;11511;51.514;7.080;2023-08-24T10:34:00;5.57;;;1.85;;
22687;SDS011;11511;51.514;7.080;2023-08-24T10:36:33;5.60;;;1.85;;
22687;SDS011;11511;51.514;7.080;2023-08-24T10:39:06;3.60;;;1.80;;
22687;SDS011;11511;51.514;7.080;2023-08-24T10:41:48;6.45;;;2.13;;
22687;SDS011;11511;51.514;7.080;2023-08-24T10:44:22;4.45;;;2.22;;
22687;SDS011;11511;51.514;7.080;2023-08-24T10:47:06;6.80;;;1.83;;
22687;SDS011;11511;51.514;7.080;2023-08-24T10:49:38;8.48;;;2.55;;
22687;SDS011;11511;51.514;7.080;2023-08-24T10:52:20;6.22;;;2.45;;
22687;SDS011;11511;51.514;7.080;2023-08-24T10:54:53;4.70;;;2.15;;
22687;SDS011;11511;51.514;7.080;2023-08-24T10:57:26;7.95;;;2.30;;
22687;SDS011;11511;51.514;7.080;2023-08-24T11:00:06;6.07;;;2.20;;
22687;SDS011;11511;51.514;7.080;2023-08-24T11:05:26;5.80;;;2.00;;
22687;SDS011;11511;51.514;7.080;2023-08-24T11:08:01;4.75;;;2.28;;
22687;SDS011;11511;51.514;7.080;2023-08-24T11:13:13;6.43;;;2.00;;
22687;SDS011;11511;51.514;7.080;2023-08-24T11:15:47;5.78;;;2.13;;
22687;SDS011;11511;51.514;7.080;2023-08-24T11:18:22;8.55;;;2.22;;
22687;SDS011;11511;51.514;7.080;2023-08-24T11:21:02;4.00;;;2.10;;
22687;SDS011;11511;51.514;7.080;2023-08-24T11:23:37;7.28;;;2.50;;
22687;SDS011;11511;51.514;7.080;2023-08-24T11:26:09;5.35;;;2.08;;
22687;SDS011;11511;51.514;7.080;2023-08-24T11:28:41;4.00;;;2.10;;
22687;SDS011;11511;51.514;7.080;2023-08-24T11:31:13;3.80;;;1.95;;
22687;SDS011;11511;51.514;7.080;2023-08-24T11:33:45;5.63;;;1.88;;
22687;SDS011;11511;51.514;7.080;2023-08-24T11:36:17;5.85;;;2.10;;
22687;SDS011;11511;51.514;7.080;2023-08-24T11:38:51;2.58;;;1.77;;
22687;SDS011;11511;51.514;7.080;2023-08-24T11:41:25;3.90;;;1.88;;
22687;SDS011;11511;51.514;7.080;2023-08-24T11:43:58;5.55;;;1.92;;
22687;SDS011;11511;51.514;7.080;2023-08-24T11:46:31;3.88;;;1.40;;
22687;SDS011;11511;51.514;7.080;2023-08-24T11:49:07;4.57;;;2.25;;
22687;SDS011;11511;51.514;7.080;2023-08-24T11:51:39;8.70;;;2.00;;
22687;SDS011;11511;51.514;7.080;2023-08-24T11:54:11;6.75;;;2.05;;
22687;SDS011;11511;51.514;7.080;2023-08-24T11:56:43;5.53;;;1.95;;
22687;SDS011;11511;51.514;7.080;2023-08-24T11:59:17;3.40;;;2.00;;
22687;SDS011;11511;51.514;7.080;2023-08-24T12:01:51;6.28;;;1.67;;
22687;SDS011;11511;51.514;7.080;2023-08-24T12:04:23;5.00;;;2.15;;
22687;SDS011;11511;51.514;7.080;2023-08-24T12:06:55;6.70;;;2.10;;
22687;SDS011;11511;51.514;7.080;2023-08-24T12:09:29;4.93;;;2.58;;
22687;SDS011;11511;51.514;7.080;2023-08-24T12:12:00;6.60;;;2.40;;
22687;SDS011;11511;51.514;7.080;2023-08-24T12:14:42;6.30;;;2.20;;
22687;SDS011;11511;51.514;7.080;2023-08-24T12:17:15;3.22;;;2.05;;
22687;SDS011;11511;51.514;7.080;2023-08-24T12:19:58;3.67;;;2.22;;
22687;SDS011;11511;51.514;7.080;2023-08-24T12:22:32;5.68;;;2.03;;
22687;SDS011;11511;51.514;7.080;2023-08-24T12:25:04;3.80;;;2.47;;
22687;SDS011;11511;51.514;7.080;2023-08-24T12:27:37;4.00;;;2.20;;
22687;SDS011;11511;51.514;7.080;2023-08-24T12:30:10;3.22;;;2.15;;
22687;SDS011;11511;51.514;7.080;2023-08-24T12:32:46;4.77;;;2.43;;
22687;SDS011;11511;51.514;7.080;2023-08-24T12:35:19;4.03;;;2.25;;
22687;SDS011;11511;51.514;7.080;2023-08-24T12:37:51;7.68;;;2.72;;
22687;SDS011;11511;51.514;7.080;2023-08-24T12:40:23;8.30;;;2.60;;
22687;SDS011;11511;51.514;7.080;2023-08-24T12:42:57;6.67;;;2.63;;
22687;SDS011;11511;51.514;7.080;2023-08-24T12:45:29;8.52;;;2.53;;
22687;SDS011;11511;51.514;7.080;2023-08-24T12:48:01;5.40;;;2.25;;
22687;SDS011;11511;51.514;7.080;2023-08-24T12:50:33;8.18;;;2.65;;
22687;SDS011;11511;51.514;7.080;2023-08-24T12:53:06;4.47;;;2.53;;
22687;SDS011;11511;51.514;7.080;2023-08-24T12:55:38;4.68;;;2.45;;
22687;SDS011;11511;51.514;7.080;2023-08-24T12:58:14;7.15;;;2.60;;
22687;SDS011;11511;51.514;7.080;2023-08-24T13:00:46;4.53;;;2.30;;
22687;SDS011;11511;51.514;7.080;2023-08-24T13:03:18;7.25;;;3.15;;
22687;SDS011;11511;51.514;7.080;2023-08-24T13:05:50;6.30;;;2.45;;
22687;SDS011;11511;51.514;7.080;2023-08-24T13:08:22;8.05;;;2.88;;
22687;SDS011;11511;51.514;7.080;2023-08-24T13:10:54;3.80;;;2.30;;
22687;SDS011;11511;51.514;7.080;2023-08-24T13:13:26;6.40;;;2.60;;
22687;SDS011;11511;51.514;7.080;2023-08-24T13:15:58;8.23;;;2.50;;
22687;SDS011;11511;51.514;7.080;2023-08-24T13:18:30;6.45;;;2.90;;
22687;SDS011;11511;51.514;7.080;2023-08-24T13:21:02;8.18;;;2.85;;
22687;SDS011;11511;51.514;7.080;2023-08-24T13:23:34;7.72;;;2.83;;
22687;SDS011;11511;51.514;7.080;2023-08-24T13:26:06;6.53;;;2.78;;
22687;SDS011;11511;51.514;7.080;2023-08-24T13:28:50;4.93;;;2.70;;
22687;SDS011;11511;51.514;7.080;2023-08-24T13:31:23;6.63;;;2.45;;
22687;SDS011;11511;51.514;7.080;2023-08-24T13:33:55;7.18;;;3.00;;
22687;SDS011;11511;51.514;7.080;2023-08-24T13:36:27;7.22;;;2.67;;
22687;SDS011;11511;51.514;7.080;2023-08-24T13:38:59;6.82;;;2.97;;
22687;SDS011;11511;51.514;7.080;2023-08-24T13:41:31;6.10;;;3.00;;
22687;SDS011;11511;51.514;7.080;2023-08-24T13:44:03;8.27;;;3.03;;
22687;SDS011;11511;51.514;7.080;2023-08-24T13:46:35;6.85;;;2.85;;
22687;SDS011;11511;51.514;7.080;2023-08-24T13:49:07;5.55;;;2.50;;
22687;SDS011;11511;51.514;7.080;2023-08-24T13:51:40;7.38;;;2.53;;
22687;SDS011;11511;51.514;7.080;2023-08-24T13:54:15;10.55;;;3.17;;
22687;SDS011;11511;51.514;7.080;2023-08-24T13:56:48;8.43;;;2.80;;
22687;SDS011;11511;51.514;7.080;2023-08-24T13:59:23;7.70;;;2.60;;
22687;SDS011;11511;51.514;7.080;2023-08-24T14:01:55;5.55;;;2.88;;
22687;SDS011;11511;51.514;7.080;2023-08-24T14:04:27;7.68;;;2.40;;
22687;SDS011;11511;51.514;7.080;2023-08-24T14:06:59;6.20;;;2.95;;
22687;SDS011;11511;51.514;7.080;2023-08-24T14:09:31;4.90;;;2.40;;
22687;SDS011;11511;51.514;7.080;2023-08-24T14:12:07;8.05;;;2.55;;
22687;SDS011;11511;51.514;7.080;2023-08-24T14:14:39;6.82;;;2.67;;
22687;SDS011;11511;51.514;7.080;2023-08-24T14:17:11;6.75;;;2.38;;
22687;SDS011;11511;51.514;7.080;2023-08-24T14:19:43;4.68;;;2.35;;
22687;SDS011;11511;51.514;7.080;2023-08-24T14:22:15;5.35;;;2.33;;
22687;SDS011;11511;51.514;7.080;2023-08-24T14:24:47;3.58;;;2.17;;
22687;SDS011;11511;51.514;7.080;2023-08-24T14:27:19;4.88;;;2.10;;
22687;SDS011;11511;51.514;7.080;2023-08-24T14:29:51;11.00;;;2.90;;
22687;SDS011;11511;51.514;7.080;2023-08-24T14:32:23;5.05;;;2.30;;
22687;SDS011;11511;51.514;7.080;2023-08-24T14:34:55;6.38;;;2.30;;
22687;SDS011;11511;51.514;7.080;2023-08-24T14:37:27;5.85;;;2.50;;
22687;SDS011;11511;51.514;7.080;2023-08-24T14:39:59;9.52;;;3.15;;
22687;SDS011;11511;51.514;7.080;2023-08-24T14:42:31;5.68;;;2.70;;
